createdAt,value
2019-05-11T00:00:39.928Z,99.20
2019-05-11T00:03:08.385Z,99.40
2019-05-11T00:05:36.965Z,99.50
2019-05-11T00:08:05.421Z,99.60
2019-05-11T00:10:33.938Z,99.60
2019-05-11T00:13:02.504Z,99.90
2019-05-11T00:15:30.995Z,99.70
2019-05-11T00:17:59.533Z,99.70
2019-05-11T00:20:28.125Z,99.70
2019-05-11T00:22:56.646Z,99.60
2019-05-11T00:25:25.122Z,99.50
2019-05-11T00:27:53.575Z,99.40
2019-05-11T00:30:22.082Z,99.50
2019-05-11T00:32:50.764Z,99.40
2019-05-11T00:35:19.201Z,99.40
2019-05-11T00:37:47.646Z,99.60
2019-05-11T00:40:16.530Z,99.60
2019-05-11T00:42:44.972Z,99.60
2019-05-11T00:45:13.834Z,99.40
2019-05-11T00:47:42.315Z,99.40
2019-05-11T00:50:11.703Z,99.50
2019-05-11T00:52:40.182Z,99.40
2019-05-11T00:55:08.879Z,99.50
2019-05-11T00:57:37.561Z,99.40
2019-05-11T01:00:09.193Z,99.50
2019-05-11T01:02:37.637Z,99.60
2019-05-11T01:05:07.953Z,99.50
2019-05-11T01:07:36.627Z,99.60
2019-05-11T01:10:21.875Z,99.70
2019-05-11T01:12:37.254Z,99.60
2019-05-11T01:15:06.682Z,99.60
2019-05-11T01:17:35.215Z,99.60
2019-05-11T01:20:05.200Z,99.60
2019-05-11T01:22:33.716Z,99.50
2019-05-11T01:25:02.159Z,99.70
2019-05-11T01:27:30.616Z,99.80
2019-05-11T01:29:59.094Z,99.80
2019-05-11T01:32:27.590Z,99.80
2019-05-11T01:34:56.043Z,99.70
2019-05-11T01:37:24.551Z,99.50
2019-05-11T01:39:52.999Z,99.60
2019-05-11T01:42:21.455Z,99.60
2019-05-11T01:44:50.042Z,99.70
2019-05-11T01:47:18.563Z,99.60
2019-05-11T01:49:47.019Z,99.80
2019-05-11T01:52:15.531Z,99.80
2019-05-11T01:54:44.042Z,99.70
2019-05-11T01:57:12.494Z,99.70
2019-05-11T01:59:40.996Z,99.70
2019-05-11T02:02:09.487Z,99.90
2019-05-11T02:04:37.956Z,99.90
2019-05-11T02:07:06.595Z,99.90
2019-05-11T02:09:35.179Z,99.90
2019-05-11T02:12:03.623Z,99.90
2019-05-11T02:14:32.125Z,99.90
2019-05-11T02:17:00.966Z,99.90
2019-05-11T02:19:29.414Z,99.90
2019-05-11T02:21:57.863Z,99.90
2019-05-11T02:24:26.359Z,99.90
2019-05-11T02:26:54.807Z,99.90
2019-05-11T02:29:23.318Z,99.90
2019-05-11T02:31:51.773Z,99.90
2019-05-11T02:34:20.291Z,99.90
2019-05-11T02:36:48.819Z,99.90
2019-05-11T02:39:17.338Z,99.90
2019-05-11T02:41:45.782Z,99.90
2019-05-11T02:44:14.300Z,99.90
2019-05-11T02:46:42.742Z,99.90
2019-05-11T02:49:11.186Z,99.90
2019-05-11T02:51:40.274Z,99.90
2019-05-11T02:54:10.269Z,99.90
2019-05-11T02:56:38.745Z,99.90
2019-05-11T02:59:07.294Z,99.90
2019-05-11T03:01:35.818Z,99.90
2019-05-11T03:04:04.329Z,99.90
2019-05-11T03:06:32.773Z,99.90
2019-05-11T03:09:01.306Z,99.90
2019-05-11T03:11:29.833Z,99.90
2019-05-11T03:13:58.347Z,99.90
2019-05-11T03:16:26.829Z,99.90
2019-05-11T03:18:55.281Z,99.90
2019-05-11T03:21:23.866Z,99.90
2019-05-11T03:23:52.324Z,99.90
2019-05-11T03:26:20.771Z,99.90
2019-05-11T03:28:49.333Z,99.90
2019-05-11T03:31:17.912Z,99.90
2019-05-11T03:33:46.357Z,99.90
2019-05-11T03:36:14.891Z,99.90
2019-05-11T03:38:43.501Z,99.90
2019-05-11T03:41:11.993Z,99.90
2019-05-11T03:43:40.515Z,99.90
2019-05-11T03:46:09.033Z,99.90
2019-05-11T03:48:37.570Z,99.90
2019-05-11T03:51:06.086Z,99.90
2019-05-11T03:53:34.569Z,99.90
2019-05-11T03:56:03.037Z,99.90
2019-05-11T03:58:31.746Z,99.90
2019-05-11T04:01:00.359Z,99.90
2019-05-11T04:03:28.869Z,99.90
2019-05-11T04:05:57.323Z,99.90
2019-05-11T04:08:25.878Z,99.90
2019-05-11T04:10:54.344Z,99.90
2019-05-11T04:13:23.052Z,99.90
2019-05-11T04:15:51.495Z,99.90
2019-05-11T04:18:20.026Z,99.90
2019-05-11T04:20:48.473Z,99.90
2019-05-11T04:23:16.932Z,99.90
2019-05-11T04:25:45.442Z,99.90
2019-05-11T04:28:14.029Z,99.90
2019-05-11T04:30:42.483Z,99.90
2019-05-11T04:33:11.019Z,99.90
2019-05-11T04:35:39.541Z,99.90
2019-05-11T04:38:08.067Z,99.90
2019-05-11T04:40:36.528Z,99.90
2019-05-11T04:43:05.018Z,99.90
2019-05-11T04:45:33.469Z,99.90
2019-05-11T04:48:01.997Z,99.90
2019-05-11T04:50:30.514Z,99.90
2019-05-11T04:52:58.963Z,99.90
2019-05-11T04:55:27.462Z,99.90
2019-05-11T04:57:55.919Z,99.90
2019-05-11T05:00:24.688Z,99.90
2019-05-11T05:02:53.219Z,99.90
2019-05-11T05:05:21.879Z,99.90
2019-05-11T05:07:50.712Z,99.90
2019-05-11T05:10:21.896Z,99.90
2019-05-11T05:12:51.365Z,99.70
2019-05-11T05:15:19.798Z,99.80
2019-05-11T05:17:48.328Z,99.00
2019-05-11T05:20:17.136Z,99.30
2019-05-11T05:22:45.618Z,99.30
2019-05-11T05:25:14.175Z,98.90
2019-05-11T05:27:42.690Z,98.70
2019-05-11T05:30:11.537Z,98.80
2019-05-11T05:32:40.169Z,98.80
2019-05-11T05:35:08.755Z,98.70
2019-05-11T05:37:37.249Z,98.70
2019-05-11T05:40:06.533Z,98.60
2019-05-11T05:42:35.053Z,98.60
2019-05-11T05:45:05.567Z,98.50
2019-05-11T05:47:33.244Z,98.10
2019-05-11T05:50:01.747Z,97.70
2019-05-11T05:52:30.396Z,97.90
2019-05-11T05:54:58.841Z,97.20
2019-05-11T05:57:27.283Z,97.00
2019-05-11T05:59:55.761Z,96.80
2019-05-11T06:02:24.337Z,95.80
2019-05-11T06:04:52.781Z,95.70
2019-05-11T06:07:21.343Z,95.40
2019-05-11T06:09:49.828Z,95.30
2019-05-11T06:12:18.304Z,94.90
2019-05-11T06:14:46.850Z,94.50
2019-05-11T06:17:15.311Z,94.00
2019-05-11T06:19:43.844Z,93.20
2019-05-11T06:22:12.290Z,93.20
2019-05-11T06:24:40.752Z,93.00
2019-05-11T06:27:09.338Z,93.20
2019-05-11T06:29:37.791Z,93.30
2019-05-11T06:32:06.235Z,93.70
2019-05-11T06:34:34.713Z,93.90
2019-05-11T06:37:03.495Z,94.10
2019-05-11T06:39:31.949Z,93.50
2019-05-11T06:42:00.472Z,93.00
2019-05-11T06:44:28.954Z,93.50
2019-05-11T06:46:57.471Z,93.30
2019-05-11T06:49:25.921Z,92.50
2019-05-11T06:51:54.495Z,92.80
2019-05-11T06:54:22.951Z,93.10
2019-05-11T06:56:51.419Z,92.90
2019-05-11T06:59:19.974Z,91.90
2019-05-11T07:01:48.417Z,92.30
2019-05-11T07:04:16.926Z,90.70
2019-05-11T07:06:45.375Z,90.90
2019-05-11T07:09:13.879Z,90.20
2019-05-11T07:11:42.609Z,90.90
2019-05-11T07:14:20.384Z,90.60
2019-05-11T07:16:41.298Z,89.20
2019-05-11T07:19:09.798Z,90.70
2019-05-11T07:21:38.313Z,90.50
2019-05-11T07:24:06.775Z,89.50
2019-05-11T07:26:35.227Z,88.60
2019-05-11T07:29:03.844Z,87.80
2019-05-11T07:31:32.302Z,87.50
2019-05-11T07:34:00.754Z,83.70
2019-05-11T07:36:29.252Z,82.00
2019-05-11T07:38:58.153Z,84.10
2019-05-11T07:41:28.145Z,84.20
2019-05-11T07:43:58.982Z,80.70
2019-05-11T07:46:28.792Z,80.00
2019-05-11T07:48:58.482Z,81.50
2019-05-11T07:51:28.795Z,81.20
2019-05-11T07:53:57.918Z,80.40
2019-05-11T07:56:28.461Z,81.90
2019-05-11T07:58:58.017Z,82.50
2019-05-11T08:01:28.213Z,80.90
2019-05-11T08:03:58.626Z,81.30
2019-05-11T08:06:28.556Z,81.00
2019-05-11T08:08:58.882Z,80.50
2019-05-11T08:11:30.740Z,79.50
2019-05-11T08:13:58.419Z,81.90
2019-05-11T08:16:28.495Z,80.50
2019-05-11T08:18:58.839Z,81.10
2019-05-11T08:21:28.339Z,76.20
2019-05-11T08:23:58.721Z,77.90
2019-05-11T08:26:28.249Z,75.80
2019-05-11T08:28:57.918Z,75.50
2019-05-11T08:32:03.306Z,72.50
2019-05-11T08:34:31.800Z,74.50
2019-05-11T08:37:01.240Z,75.10
2019-05-11T08:39:29.676Z,71.10
2019-05-11T08:41:58.980Z,71.00
2019-05-11T08:44:28.757Z,71.30
2019-05-11T08:46:58.204Z,69.50
2019-05-11T08:49:28.760Z,71.50
2019-05-11T08:51:57.985Z,70.60
2019-05-11T08:54:28.660Z,71.00
2019-05-11T08:56:58.786Z,71.50
2019-05-11T08:59:27.896Z,70.60
2019-05-11T09:01:58.794Z,70.60
2019-05-11T09:04:28.826Z,72.20
2019-05-11T09:06:58.671Z,68.70
2019-05-11T09:09:28.721Z,69.20
2019-05-11T09:11:58.825Z,68.40
2019-05-11T09:14:28.380Z,66.40
2019-05-11T09:16:57.894Z,68.20
2019-05-11T09:19:28.445Z,64.70
2019-05-11T09:21:58.845Z,65.00
2019-05-11T09:24:28.192Z,67.60
2019-05-11T09:26:58.530Z,68.10
2019-05-11T09:29:28.159Z,64.30
2019-05-11T09:31:58.321Z,62.90
2019-05-11T09:34:28.634Z,61.40
2019-05-11T09:36:58.697Z,61.20
2019-05-11T09:39:28.029Z,63.10
2019-05-11T09:41:58.467Z,60.00
2019-05-11T09:44:28.895Z,61.80
2019-05-11T09:46:59.987Z,61.80
2019-05-11T09:49:42.966Z,62.40
2019-05-11T09:51:58.955Z,59.80
2019-05-11T09:54:28.986Z,57.10
2019-05-11T09:56:57.959Z,61.90
2019-05-11T09:59:28.261Z,61.30
2019-05-11T10:01:58.776Z,62.20
2019-05-11T10:04:28.900Z,59.40
2019-05-11T10:06:58.568Z,59.20
2019-05-11T10:09:27.975Z,58.80
2019-05-11T10:11:58.425Z,60.00
2019-05-11T10:14:28.899Z,61.40
2019-05-11T10:16:58.421Z,59.40
2019-05-11T10:19:28.436Z,60.40
2019-05-11T10:21:58.012Z,58.40
2019-05-11T10:24:28.347Z,59.90
2019-05-11T10:26:57.818Z,56.90
2019-05-11T10:29:28.730Z,56.10
2019-05-11T10:31:58.695Z,58.20
2019-05-11T10:34:28.476Z,59.70
2019-05-11T10:36:58.020Z,58.90
2019-05-11T10:39:27.964Z,58.30
2019-05-11T10:41:58.431Z,58.50
2019-05-11T10:44:28.082Z,56.80
2019-05-11T10:46:58.715Z,55.90
2019-05-11T10:49:28.942Z,56.90
2019-05-11T10:51:58.719Z,56.30
2019-05-11T10:54:28.722Z,54.50
2019-05-11T10:56:57.903Z,56.30
2019-05-11T10:59:28.245Z,53.40
2019-05-11T11:01:56.144Z,52.90
2019-05-11T11:04:24.730Z,54.80
2019-05-11T11:06:53.179Z,53.60
2019-05-11T11:09:21.630Z,56.40
2019-05-11T11:11:50.140Z,56.60
2019-05-11T11:14:18.670Z,56.80
2019-05-11T11:16:47.921Z,56.70
2019-05-11T11:19:18.355Z,57.50
2019-05-11T11:21:48.708Z,56.70
2019-05-11T11:24:18.011Z,55.10
2019-05-11T11:26:48.570Z,53.80
2019-05-11T11:29:17.923Z,53.40
2019-05-11T11:31:48.176Z,52.50
2019-05-11T11:34:16.073Z,54.60
2019-05-11T11:36:44.597Z,53.20
2019-05-11T11:39:13.053Z,53.70
2019-05-11T11:41:41.501Z,53.30
2019-05-11T11:44:10.000Z,53.60
2019-05-11T11:46:51.252Z,55.50
2019-05-11T11:49:08.613Z,54.40
2019-05-11T11:51:37.828Z,55.80
2019-05-11T11:54:08.520Z,58.30
2019-05-11T11:56:37.955Z,58.00
2019-05-11T11:59:08.516Z,57.60
2019-05-11T12:01:38.429Z,59.40
2019-05-11T12:04:08.265Z,60.90
2019-05-11T12:06:38.552Z,60.40
2019-05-11T12:09:08.812Z,60.60
2019-05-11T12:11:38.064Z,60.90
2019-05-11T12:14:08.744Z,61.00
2019-05-11T12:16:38.782Z,60.30
2019-05-11T12:19:08.462Z,60.90
2019-05-11T12:21:37.992Z,62.40
2019-05-11T12:24:08.200Z,61.20
2019-05-11T12:26:36.187Z,65.00
2019-05-11T12:29:04.646Z,62.80
2019-05-11T12:31:33.156Z,63.70
2019-05-11T12:34:01.606Z,63.30
2019-05-11T12:36:30.054Z,63.70
2019-05-11T12:38:58.541Z,66.00
2019-05-11T12:41:28.027Z,66.90
2019-05-11T12:43:57.759Z,64.10
2019-05-11T12:46:27.631Z,68.90
2019-05-11T12:48:57.283Z,68.70
2019-05-11T12:51:27.664Z,68.00
2019-05-11T12:53:57.640Z,64.10
2019-05-11T12:56:27.712Z,65.30
2019-05-11T12:58:58.208Z,65.30
2019-05-11T13:01:28.904Z,66.10
2019-05-11T13:03:58.078Z,66.50
2019-05-11T13:06:27.944Z,66.20
2019-05-11T13:08:58.603Z,68.00
2019-05-11T13:11:28.545Z,65.90
2019-05-11T13:13:58.573Z,67.20
2019-05-11T13:16:28.752Z,66.40
2019-05-11T13:18:57.747Z,68.20
2019-05-11T13:21:28.535Z,69.60
2019-05-11T13:23:57.673Z,69.60
2019-05-11T13:26:28.283Z,68.70
2019-05-11T13:28:58.434Z,68.10
2019-05-11T13:31:27.796Z,72.40
2019-05-11T13:33:58.347Z,67.10
2019-05-11T13:36:28.656Z,68.90
2019-05-11T13:38:58.793Z,70.80
2019-05-11T13:41:28.032Z,74.00
2019-05-11T13:43:57.668Z,74.20
2019-05-11T13:46:28.178Z,73.10
2019-05-11T13:48:57.977Z,75.60
2019-05-11T13:51:28.402Z,77.10
2019-05-11T13:53:58.472Z,76.40
2019-05-11T13:56:28.482Z,76.10
2019-05-11T13:58:58.115Z,75.90
2019-05-11T14:01:27.838Z,76.50
2019-05-11T14:03:58.496Z,78.00
2019-05-11T14:06:28.769Z,77.00
2019-05-11T14:08:58.673Z,75.80
2019-05-11T14:11:28.604Z,78.10
2019-05-11T14:13:58.511Z,76.80
2019-05-11T14:16:27.735Z,77.90
2019-05-11T14:18:57.862Z,75.90
2019-05-11T14:21:27.965Z,75.90
2019-05-11T14:23:58.652Z,74.00
2019-05-11T14:26:28.025Z,74.80
2019-05-11T14:28:58.262Z,76.80
2019-05-11T14:31:27.939Z,77.30
2019-05-11T14:33:57.895Z,74.80
2019-05-11T14:36:28.174Z,79.30
2019-05-11T14:38:57.789Z,75.60
2019-05-11T14:41:28.416Z,77.30
2019-05-11T14:43:57.986Z,78.30
2019-05-11T14:46:27.884Z,79.10
2019-05-11T14:48:58.372Z,79.00
2019-05-11T14:51:28.205Z,82.20
2019-05-11T14:53:59.497Z,83.30
2019-05-11T14:56:27.946Z,81.80
2019-05-11T14:58:57.992Z,84.90
2019-05-11T15:01:28.693Z,83.30
2019-05-11T15:03:58.895Z,82.50
2019-05-11T15:06:27.907Z,82.50
2019-05-11T15:08:58.210Z,82.00
2019-05-11T15:11:28.022Z,83.70
2019-05-11T15:13:57.568Z,84.80
2019-05-11T15:16:27.837Z,84.30
2019-05-11T15:18:58.463Z,85.30
2019-05-11T15:21:28.034Z,85.00
2019-05-11T15:23:58.049Z,87.90
2019-05-11T15:26:27.828Z,86.00
2019-05-11T15:28:58.454Z,87.90
2019-05-11T15:31:27.837Z,83.70
2019-05-11T15:33:57.716Z,85.30
2019-05-11T15:36:28.414Z,86.00
2019-05-11T15:38:58.230Z,86.00
2019-05-11T15:41:28.061Z,86.90
2019-05-11T15:43:57.902Z,86.40
2019-05-11T15:46:28.250Z,86.90
2019-05-11T15:49:03.148Z,86.00
2019-05-11T15:51:29.092Z,87.30
2019-05-11T15:53:58.694Z,85.30
2019-05-11T15:56:27.992Z,86.80
2019-05-11T15:58:57.853Z,87.70
2019-05-11T16:01:28.750Z,88.10
2019-05-11T16:03:58.301Z,88.70
2019-05-11T16:06:28.474Z,87.70
2019-05-11T16:08:58.611Z,86.50
2019-05-11T16:11:28.385Z,86.70
2019-05-11T16:13:58.621Z,88.70
2019-05-11T16:16:28.105Z,88.80
2019-05-11T16:19:10.185Z,87.60
2019-05-11T16:21:28.460Z,88.60
2019-05-11T16:23:58.482Z,89.60
2019-05-11T16:26:28.148Z,90.50
2019-05-11T16:28:58.181Z,90.60
2019-05-11T16:31:28.470Z,91.30
2019-05-11T16:33:58.755Z,90.90
2019-05-11T16:36:28.433Z,92.70
2019-05-11T16:38:56.769Z,92.20
2019-05-11T16:41:25.293Z,92.70
2019-05-11T16:43:53.734Z,93.00
2019-05-11T16:46:22.194Z,92.50
2019-05-11T16:48:50.899Z,92.60
2019-05-11T16:51:19.343Z,92.90
2019-05-11T16:53:48.128Z,93.80
2019-05-11T16:56:16.766Z,93.00
2019-05-11T16:58:45.231Z,93.80
2019-05-11T17:01:13.766Z,93.00
2019-05-11T17:03:42.211Z,92.70
2019-05-11T17:06:10.658Z,92.40
2019-05-11T17:08:39.165Z,92.70
2019-05-11T17:11:08.200Z,92.90
2019-05-11T17:13:37.971Z,92.70
2019-05-11T17:16:08.675Z,93.20
2019-05-11T17:18:36.928Z,92.60
2019-05-11T17:21:07.635Z,92.90
2019-05-11T17:23:38.058Z,93.90
2019-05-11T17:26:08.510Z,92.90
2019-05-11T17:28:37.870Z,92.40
2019-05-11T17:31:08.009Z,92.40
2019-05-11T17:33:38.435Z,92.90
2019-05-11T17:36:08.409Z,93.80
2019-05-11T17:38:39.009Z,93.20
2019-05-11T17:41:08.519Z,93.50
2019-05-11T17:43:38.645Z,93.30
2019-05-11T17:46:08.126Z,92.50
2019-05-11T17:48:38.878Z,93.40
2019-05-11T17:51:20.906Z,93.50
2019-05-11T17:53:37.807Z,94.00
2019-05-11T17:56:06.491Z,93.80
2019-05-11T17:58:37.671Z,93.70
2019-05-11T18:01:04.621Z,93.60
2019-05-11T18:03:33.078Z,93.20
2019-05-11T18:06:01.575Z,93.10
2019-05-11T18:08:30.987Z,93.60
2019-05-11T18:10:59.702Z,93.50
2019-05-11T18:13:28.580Z,93.60
2019-05-11T18:15:57.905Z,93.40
2019-05-11T18:18:28.877Z,93.90
2019-05-11T18:20:57.868Z,93.90
2019-05-11T18:23:28.295Z,94.30
2019-05-11T18:25:56.868Z,94.90
2019-05-11T18:28:25.360Z,95.10
2019-05-11T18:30:53.827Z,95.10
2019-05-11T18:33:22.376Z,95.70
2019-05-11T18:35:50.847Z,96.80
2019-05-11T18:38:19.422Z,96.00
2019-05-11T18:40:48.644Z,94.60
2019-05-11T18:43:18.816Z,95.30
2019-05-11T18:45:48.773Z,95.20
2019-05-11T18:48:18.543Z,95.00
2019-05-11T18:50:48.462Z,95.10
2019-05-11T18:53:18.638Z,95.60
2019-05-11T18:55:48.670Z,94.90
2019-05-11T18:58:18.442Z,94.70
2019-05-11T19:00:48.791Z,95.20
2019-05-11T19:03:19.220Z,95.20
2019-05-11T19:05:48.164Z,95.40
2019-05-11T19:08:18.948Z,95.40
2019-05-11T19:10:48.777Z,95.30
2019-05-11T19:13:17.227Z,95.50
2019-05-11T19:15:48.449Z,95.50
2019-05-11T19:18:15.228Z,95.20
2019-05-11T19:20:46.091Z,95.20
2019-05-11T19:23:13.941Z,95.60
2019-05-11T19:25:42.403Z,96.00
2019-05-11T19:28:10.901Z,95.40
2019-05-11T19:30:39.416Z,95.80
2019-05-11T19:33:11.055Z,95.60
2019-05-11T19:35:38.371Z,95.20
2019-05-11T19:38:08.654Z,95.30
2019-05-11T19:40:38.455Z,95.50
2019-05-11T19:43:08.234Z,95.50
2019-05-11T19:45:38.370Z,96.30
2019-05-11T19:48:08.429Z,96.30
2019-05-11T19:50:40.301Z,95.70
2019-05-11T19:53:08.484Z,95.70
2019-05-11T19:55:37.316Z,95.90
2019-05-11T19:58:05.881Z,96.20
2019-05-11T20:00:34.401Z,96.70
2019-05-11T20:03:03.064Z,96.40
2019-05-11T20:05:31.574Z,96.30
2019-05-11T20:08:00.103Z,96.00
2019-05-11T20:10:28.568Z,96.90
2019-05-11T20:12:58.786Z,96.80
2019-05-11T20:15:27.325Z,96.90
2019-05-11T20:17:55.775Z,96.90
2019-05-11T20:20:24.230Z,96.30
2019-05-11T20:22:52.785Z,96.30
2019-05-11T20:25:21.228Z,96.90
2019-05-11T20:27:49.686Z,96.10
2019-05-11T20:30:19.383Z,96.00
2019-05-11T20:32:48.920Z,96.80
2019-05-11T20:35:17.723Z,96.00
2019-05-11T20:37:46.278Z,95.40
2019-05-11T20:40:15.474Z,94.80
2019-05-11T20:42:43.993Z,94.90
2019-05-11T20:45:12.681Z,94.20
2019-05-11T20:47:41.423Z,93.90
2019-05-11T20:50:10.200Z,93.10
2019-05-11T20:52:40.035Z,92.70
2019-05-11T20:55:09.163Z,92.30
2019-05-11T20:57:39.355Z,91.80
2019-05-11T21:00:14.121Z,91.50
2019-05-11T21:02:42.573Z,92.10
2019-05-11T21:05:11.022Z,91.80
2019-05-11T21:07:39.610Z,90.40
2019-05-11T21:10:09.039Z,90.60
2019-05-11T21:12:38.646Z,90.80
2019-05-11T21:15:09.302Z,91.00
2019-05-11T21:17:37.825Z,91.70
2019-05-11T21:20:10.029Z,90.70
2019-05-11T21:22:40.671Z,90.30
2019-05-11T21:25:10.995Z,89.20
2019-05-11T21:27:39.448Z,88.40
2019-05-11T21:30:09.742Z,88.90
2019-05-11T21:32:38.348Z,90.20
2019-05-11T21:35:08.825Z,89.80
2019-05-11T21:37:38.714Z,90.00
2019-05-11T21:40:08.927Z,91.20
2019-05-11T21:42:38.890Z,90.10
2019-05-11T21:45:09.438Z,90.20
2019-05-11T21:47:38.982Z,90.10
2019-05-11T21:50:09.050Z,90.40
2019-05-11T21:52:38.538Z,90.00
2019-05-11T21:55:09.369Z,90.50
2019-05-11T21:57:38.544Z,90.40
2019-05-11T22:00:10.290Z,91.00
2019-05-11T22:02:39.052Z,90.50
2019-05-11T22:05:09.337Z,90.40
2019-05-11T22:07:38.833Z,90.80
2019-05-11T22:10:10.167Z,90.70
2019-05-11T22:12:39.366Z,90.60
2019-05-11T22:15:11.621Z,90.90
2019-05-11T22:17:40.145Z,90.70
2019-05-11T22:20:09.466Z,90.30
2019-05-11T22:22:38.865Z,90.70
2019-05-11T22:25:09.017Z,90.50
2019-05-11T22:27:38.890Z,90.50
2019-05-11T22:30:11.449Z,90.70
2019-05-11T22:32:39.899Z,90.70
2019-05-11T22:35:09.465Z,91.80
2019-05-11T22:37:39.074Z,91.60
2019-05-11T22:40:08.948Z,91.90
2019-05-11T22:42:37.800Z,92.10
2019-05-11T22:45:08.766Z,92.20
2019-05-11T22:47:39.142Z,92.70
2019-05-11T22:50:09.379Z,93.10
2019-05-11T22:52:40.414Z,92.70
2019-05-11T22:55:11.917Z,93.00
2019-05-11T22:57:39.202Z,92.80
2019-05-11T23:00:09.587Z,93.60
2019-05-11T23:02:38.371Z,93.10
2019-05-11T23:05:08.419Z,93.40
2019-05-11T23:07:41.187Z,93.70
2019-05-11T23:10:09.505Z,93.40
2019-05-11T23:12:38.547Z,94.00
2019-05-11T23:15:09.968Z,93.50
2019-05-11T23:17:38.834Z,93.30
2019-05-11T23:20:07.935Z,92.70
2019-05-11T23:22:51.209Z,92.50
2019-05-11T23:25:08.490Z,92.80
2019-05-11T23:27:39.206Z,92.30
2019-05-11T23:30:08.724Z,91.80
2019-05-11T23:32:37.807Z,92.10
2019-05-11T23:35:08.414Z,91.80
2019-05-11T23:37:38.712Z,92.20
2019-05-11T23:40:10.065Z,91.50
2019-05-11T23:42:38.509Z,91.60
2019-05-11T23:45:08.866Z,91.70
2019-05-11T23:47:38.997Z,91.80
2019-05-11T23:50:08.145Z,91.50
2019-05-11T23:52:37.977Z,91.50
2019-05-11T23:55:08.381Z,91.50
2019-05-11T23:57:37.963Z,91.80
